KLOZ/LOZ METAR and TAF weather

Enter ICAO airport designator
Station Type Date Time Source
KLOZ METAR 2018/12/18 18:53 UTC NOAA

KLOZ 181853Z AUTO VRB05KT 10SM CLR 09/M01 A3013 RMK AO2 SLP208 T00941006


Station Type Date Time Source
KLOZ Decoded METAR 2018/12/18 18:53 UTC NOAA

LONDON-CORBIN AIRPORT, KY, United States (KLOZ) 37-05N 084-04W 362M
Dec 18, 2018 - 01:53 PM EST / 2018.12.18 1853 UTC
Wind: Variable at 6 MPH (5 KT):0
Visibility: 10 mile(s):0
Sky conditions: clear
Temperature: 48.9 F (9.4 C)
Dew Point: 30.9 F (-0.6 C)
Relative Humidity: 49%
Pressure (altimeter): 30.13 in. Hg (1020 hPa)
ob: KLOZ 181853Z AUTO VRB05KT 10SM CLR 09/M01 A3013 RMK AO2 SLP208 T00941006
cycle: 19

Station Type Date Time Source
KLOZ TAF 2018/12/18 18:24 UTC NOAA

TAF KLOZ 181720Z 1818/1918 VRB04KT P6SM FEW250


Example: see airport list